createdAt,value
2022-07-29T00:01:21.832Z,99.90
2022-07-29T00:04:14.669Z,99.90
2022-07-29T00:07:07.368Z,99.90
2022-07-29T00:09:59.604Z,99.90
2022-07-29T00:12:51.807Z,99.90
2022-07-29T00:15:44.372Z,99.90
2022-07-29T00:18:36.729Z,99.90
2022-07-29T00:21:28.930Z,99.90
2022-07-29T00:24:21.193Z,99.90
2022-07-29T00:27:13.682Z,99.90
2022-07-29T00:30:06.728Z,99.90
2022-07-29T00:32:59.078Z,99.90
2022-07-29T00:35:51.280Z,99.90
2022-07-29T00:38:46.312Z,99.90
2022-07-29T00:41:38.522Z,99.90
2022-07-29T00:44:30.738Z,99.90
2022-07-29T00:47:22.918Z,99.90
2022-07-29T00:50:15.609Z,99.90
2022-07-29T00:53:09.107Z,99.90
2022-07-29T00:56:01.442Z,99.90
2022-07-29T00:58:54.905Z,99.90
2022-07-29T01:01:47.229Z,99.90
2022-07-29T01:04:40.271Z,99.90
2022-07-29T01:07:34.924Z,99.90
2022-07-29T01:10:28.669Z,99.90
2022-07-29T01:13:21.766Z,99.90
2022-07-29T01:16:26.208Z,99.90
2022-07-29T01:19:53.832Z,99.90
2022-07-29T01:23:08.778Z,99.90
2022-07-29T01:26:38.019Z,99.90
2022-07-29T01:29:40.329Z,99.90
2022-07-29T01:32:38.977Z,99.90
2022-07-29T01:35:38.809Z,99.90
2022-07-29T01:38:31.341Z,99.90
2022-07-29T01:41:23.945Z,99.90
2022-07-29T01:44:33.992Z,99.90
2022-07-29T01:47:35.743Z,99.90
2022-07-29T01:50:36.115Z,99.90
2022-07-29T01:53:38.265Z,99.90
2022-07-29T01:56:34.696Z,99.90
2022-07-29T01:59:27.254Z,99.90
2022-07-29T02:02:21.600Z,99.90
2022-07-29T02:05:16.650Z,99.90
2022-07-29T02:08:10.830Z,99.90
2022-07-29T02:11:05.933Z,99.90
2022-07-29T02:14:00.963Z,99.90
2022-07-29T02:16:55.342Z,99.90
2022-07-29T02:19:48.687Z,99.90
2022-07-29T02:22:42.123Z,99.90
2022-07-29T02:25:37.526Z,99.90
2022-07-29T02:28:33.887Z,99.90
2022-07-29T02:31:30.966Z,99.90
2022-07-29T02:34:24.384Z,99.90
2022-07-29T02:37:18.944Z,99.90
2022-07-29T02:40:15.441Z,99.90
2022-07-29T02:43:09.319Z,99.90
2022-07-29T02:46:03.850Z,99.90
2022-07-29T02:49:24.092Z,99.90
2022-07-29T02:52:35.959Z,99.90
2022-07-29T02:55:35.252Z,99.90
2022-07-29T02:58:32.684Z,99.90
2022-07-29T03:01:26.695Z,99.90
2022-07-29T03:04:20.486Z,99.90
2022-07-29T03:07:15.444Z,99.90
2022-07-29T03:10:13.400Z,99.90
2022-07-29T03:13:07.001Z,99.90
2022-07-29T03:16:00.002Z,99.90
2022-07-29T03:18:52.677Z,99.90
2022-07-29T03:21:44.854Z,99.90
2022-07-29T03:24:39.194Z,99.90
2022-07-29T03:27:31.415Z,99.90
2022-07-29T03:30:24.375Z,99.90
2022-07-29T03:33:17.044Z,99.90
2022-07-29T03:36:09.912Z,99.90
2022-07-29T03:39:03.302Z,99.90
2022-07-29T03:41:58.200Z,99.90
2022-07-29T03:44:52.877Z,99.90
2022-07-29T03:47:50.622Z,99.90
2022-07-29T03:50:45.436Z,99.90
2022-07-29T03:53:38.351Z,99.90
2022-07-29T03:56:32.590Z,99.90
2022-07-29T03:59:25.153Z,99.90
2022-07-29T04:02:21.880Z,99.90
2022-07-29T04:05:16.932Z,99.90
2022-07-29T04:08:09.188Z,99.90
2022-07-29T04:11:02.678Z,99.90
2022-07-29T04:13:54.870Z,99.90
2022-07-29T04:16:47.804Z,99.90
2022-07-29T04:19:39.994Z,99.90
2022-07-29T04:22:32.218Z,99.90
2022-07-29T04:25:24.420Z,99.90
2022-07-29T04:28:17.088Z,99.90
2022-07-29T04:31:09.852Z,99.90
2022-07-29T04:34:02.114Z,99.90
2022-07-29T04:36:54.304Z,99.90
2022-07-29T04:39:46.566Z,99.90
2022-07-29T04:42:46.238Z,99.90
2022-07-29T04:45:39.984Z,99.90
2022-07-29T04:48:32.233Z,99.90
2022-07-29T04:51:24.432Z,99.90
2022-07-29T04:54:17.203Z,99.90
2022-07-29T04:57:09.849Z,99.90
2022-07-29T05:00:02.375Z,99.90
2022-07-29T05:02:54.749Z,99.90
2022-07-29T05:05:47.042Z,99.90
2022-07-29T05:08:39.254Z,99.90
2022-07-29T05:11:34.183Z,99.90
2022-07-29T05:14:26.438Z,99.90
2022-07-29T05:17:18.757Z,99.90
2022-07-29T05:20:11.390Z,99.90
2022-07-29T05:23:04.122Z,99.90
2022-07-29T05:25:56.328Z,99.90
2022-07-29T05:28:48.693Z,99.90
2022-07-29T05:31:41.077Z,99.90
2022-07-29T05:34:33.377Z,99.90
2022-07-29T05:37:25.699Z,99.90
2022-07-29T05:40:17.954Z,99.90
2022-07-29T05:43:10.145Z,99.90
2022-07-29T05:46:02.413Z,99.90
2022-07-29T05:48:55.165Z,99.90
2022-07-29T05:51:48.430Z,99.90
2022-07-29T05:54:40.901Z,99.90
2022-07-29T05:57:33.139Z,99.90
2022-07-29T06:00:25.331Z,99.90
2022-07-29T06:03:17.521Z,99.00
2022-07-29T06:06:10.059Z,98.20
2022-07-29T06:09:12.536Z,97.30
2022-07-29T06:12:05.849Z,97.00
2022-07-29T06:14:58.049Z,96.10
2022-07-29T06:17:59.340Z,96.00
2022-07-29T06:20:53.320Z,95.20
2022-07-29T06:23:46.253Z,94.00
2022-07-29T06:26:40.014Z,94.90
2022-07-29T06:29:32.306Z,94.20
2022-07-29T06:32:27.361Z,94.40
2022-07-29T06:35:39.116Z,94.80
2022-07-29T06:38:34.284Z,93.50
2022-07-29T06:41:32.478Z,93.70
2022-07-29T06:44:25.714Z,93.90
2022-07-29T06:47:17.966Z,93.80
2022-07-29T06:50:13.413Z,94.00
2022-07-29T06:53:05.685Z,93.20
2022-07-29T06:55:59.318Z,92.80
2022-07-29T06:58:51.584Z,93.50
2022-07-29T07:01:44.581Z,93.20
2022-07-29T07:04:36.902Z,93.50
2022-07-29T07:07:29.184Z,93.00
2022-07-29T07:10:21.437Z,92.80
2022-07-29T07:13:13.710Z,92.50
2022-07-29T07:16:06.522Z,92.60
2022-07-29T07:18:58.770Z,92.40
2022-07-29T07:21:50.967Z,92.40
2022-07-29T07:24:43.141Z,91.90
2022-07-29T07:27:35.431Z,92.10
2022-07-29T07:30:28.445Z,92.30
2022-07-29T07:33:20.825Z,92.40
2022-07-29T07:36:13.154Z,92.50
2022-07-29T07:39:13.926Z,91.60
2022-07-29T07:42:06.250Z,92.10
2022-07-29T07:45:13.190Z,91.90
2022-07-29T07:48:06.574Z,91.30
2022-07-29T07:50:58.877Z,91.70
2022-07-29T07:53:51.338Z,91.80
2022-07-29T07:56:43.530Z,92.40
2022-07-29T07:59:35.772Z,92.30
2022-07-29T08:02:28.172Z,92.50
2022-07-29T08:05:20.498Z,91.60
2022-07-29T08:08:12.724Z,92.20
2022-07-29T08:11:09.350Z,91.60
2022-07-29T08:14:02.526Z,91.20
2022-07-29T08:16:54.887Z,90.90
2022-07-29T08:19:49.317Z,91.20
2022-07-29T08:22:41.507Z,91.20
2022-07-29T08:25:34.715Z,91.10
2022-07-29T08:28:30.939Z,90.50
2022-07-29T08:31:23.536Z,90.50
2022-07-29T08:34:15.794Z,90.80
2022-07-29T08:37:08.006Z,90.10
2022-07-29T08:40:00.332Z,90.70
2022-07-29T08:42:52.593Z,89.60
2022-07-29T08:45:48.591Z,89.90
2022-07-29T08:48:42.640Z,87.50
2022-07-29T08:51:37.037Z,87.10
2022-07-29T08:54:44.783Z,87.80
2022-07-29T08:57:39.598Z,87.60
2022-07-29T09:00:51.422Z,85.80
2022-07-29T09:03:44.677Z,85.60
2022-07-29T09:06:42.935Z,85.00
2022-07-29T09:09:35.528Z,82.20
2022-07-29T09:12:29.554Z,82.80
2022-07-29T09:15:22.255Z,84.10
2022-07-29T09:18:42.197Z,82.40
2022-07-29T09:22:00.529Z,82.20
2022-07-29T09:24:56.350Z,80.90
2022-07-29T09:27:52.014Z,78.70
2022-07-29T09:30:55.252Z,78.40
2022-07-29T09:33:47.621Z,76.80
2022-07-29T09:36:48.507Z,77.10
2022-07-29T09:39:47.682Z,77.80
2022-07-29T09:42:40.063Z,77.30
2022-07-29T09:45:34.485Z,77.50
2022-07-29T09:48:26.685Z,74.70
2022-07-29T09:51:26.922Z,74.50
2022-07-29T09:54:35.403Z,76.20
2022-07-29T09:57:31.120Z,74.90
2022-07-29T10:00:24.150Z,73.70
2022-07-29T10:03:17.803Z,71.80
2022-07-29T10:06:14.566Z,70.80
2022-07-29T10:09:11.068Z,68.50
2022-07-29T10:12:10.153Z,66.70
2022-07-29T10:15:03.726Z,64.80
2022-07-29T10:17:57.062Z,67.30
2022-07-29T10:20:49.959Z,63.80
2022-07-29T10:23:46.902Z,63.20
2022-07-29T10:26:41.936Z,65.30
2022-07-29T10:29:34.336Z,62.70
2022-07-29T10:32:35.143Z,63.20
2022-07-29T10:36:09.638Z,61.30
2022-07-29T10:39:44.566Z,60.80
2022-07-29T10:42:42.349Z,59.00
2022-07-29T10:45:34.774Z,60.90
2022-07-29T10:48:27.919Z,60.60
2022-07-29T10:51:20.193Z,59.60
2022-07-29T10:54:13.262Z,60.10
2022-07-29T10:57:53.120Z,59.20
2022-07-29T11:00:40.399Z,60.30
2022-07-29T11:03:49.497Z,60.70
2022-07-29T11:07:09.555Z,61.30
2022-07-29T11:10:14.001Z,61.30
2022-07-29T11:13:06.629Z,61.80
2022-07-29T11:15:59.631Z,61.50
2022-07-29T11:19:13.910Z,61.00
2022-07-29T11:22:09.400Z,61.80
2022-07-29T11:25:18.870Z,61.70
2022-07-29T11:28:31.330Z,61.90
2022-07-29T11:31:33.671Z,61.80
2022-07-29T11:34:33.340Z,61.80
2022-07-29T11:37:27.930Z,63.60
2022-07-29T11:40:22.981Z,63.40
2022-07-29T11:43:48.447Z,63.70
2022-07-29T11:46:50.758Z,62.80
2022-07-29T11:49:48.169Z,66.00
2022-07-29T11:52:49.863Z,63.30
2022-07-29T11:55:51.864Z,61.30
2022-07-29T11:58:44.317Z,63.00
2022-07-29T12:01:37.208Z,62.10
2022-07-29T12:04:29.423Z,61.10
2022-07-29T12:07:32.715Z,59.00
2022-07-29T12:10:32.099Z,58.70
2022-07-29T12:13:37.028Z,58.40
2022-07-29T12:16:39.419Z,58.60
2022-07-29T12:19:44.538Z,58.50
2022-07-29T12:22:41.854Z,58.30
2022-07-29T12:25:39.314Z,58.20
2022-07-29T12:28:39.302Z,58.40
2022-07-29T12:31:43.635Z,59.00
2022-07-29T12:34:37.986Z,60.20
2022-07-29T12:37:30.984Z,59.70
2022-07-29T12:40:33.840Z,59.70
2022-07-29T12:43:26.349Z,59.80
2022-07-29T12:46:18.593Z,59.30
2022-07-29T12:49:10.910Z,58.50
2022-07-29T12:52:26.856Z,58.20
2022-07-29T12:55:46.106Z,57.10
2022-07-29T12:58:41.516Z,58.30
2022-07-29T13:01:37.954Z,57.60
2022-07-29T13:04:33.191Z,56.40
2022-07-29T13:07:54.148Z,56.60
2022-07-29T13:10:43.430Z,56.80
2022-07-29T13:13:51.053Z,57.10
2022-07-29T13:17:06.426Z,56.30
2022-07-29T13:20:13.426Z,56.20
2022-07-29T13:23:06.025Z,56.80
2022-07-29T13:26:10.857Z,56.00
2022-07-29T13:29:03.273Z,56.90
2022-07-29T13:31:56.373Z,56.40
2022-07-29T13:34:48.800Z,56.40
2022-07-29T13:37:41.476Z,56.30
2022-07-29T13:40:36.351Z,56.10
2022-07-29T13:43:28.615Z,55.40
2022-07-29T13:46:21.243Z,55.20
2022-07-29T13:49:13.529Z,55.80
2022-07-29T13:52:08.418Z,55.70
2022-07-29T13:55:00.824Z,54.90
2022-07-29T13:57:53.077Z,55.20
2022-07-29T14:00:45.283Z,54.60
2022-07-29T14:03:41.769Z,55.10
2022-07-29T14:06:38.322Z,55.20
2022-07-29T14:09:37.450Z,54.00
2022-07-29T14:12:34.264Z,54.70
2022-07-29T14:15:26.666Z,54.80
2022-07-29T14:18:18.861Z,55.90
2022-07-29T14:21:11.057Z,55.30
2022-07-29T14:24:03.395Z,54.80
2022-07-29T14:27:09.168Z,56.10
2022-07-29T14:30:01.494Z,56.00
2022-07-29T14:32:53.723Z,57.10
2022-07-29T14:35:46.036Z,57.10
2022-07-29T14:38:39.648Z,57.50
2022-07-29T14:41:31.813Z,57.50
2022-07-29T14:44:24.655Z,57.90
2022-07-29T14:47:16.846Z,57.40
2022-07-29T14:50:11.577Z,56.70
2022-07-29T14:53:04.126Z,57.00
2022-07-29T14:55:56.309Z,57.00
2022-07-29T14:58:51.463Z,57.10
2022-07-29T15:01:44.368Z,56.60
2022-07-29T15:04:38.111Z,56.00
2022-07-29T15:07:30.300Z,55.60
2022-07-29T15:10:24.700Z,55.70
2022-07-29T15:13:17.109Z,55.70
2022-07-29T15:16:10.189Z,56.00
2022-07-29T15:19:03.503Z,56.00
2022-07-29T15:21:59.653Z,55.60
2022-07-29T15:24:52.119Z,55.40
2022-07-29T15:27:52.369Z,55.70
2022-07-29T15:30:45.662Z,56.10
2022-07-29T15:33:37.932Z,55.80
2022-07-29T15:36:50.634Z,56.30
2022-07-29T15:39:42.283Z,56.30
2022-07-29T15:42:37.919Z,56.80
2022-07-29T15:45:32.066Z,55.40
2022-07-29T15:48:24.792Z,55.40
2022-07-29T15:51:17.436Z,55.40
2022-07-29T15:54:09.674Z,55.80
2022-07-29T15:57:01.984Z,57.30
2022-07-29T15:59:54.241Z,56.60
2022-07-29T16:02:46.441Z,55.50
2022-07-29T16:05:38.949Z,56.20
2022-07-29T16:08:31.174Z,56.30
2022-07-29T16:11:23.366Z,56.30
2022-07-29T16:14:15.573Z,56.60
2022-07-29T16:17:07.856Z,57.20
2022-07-29T16:20:00.702Z,56.20
2022-07-29T16:22:52.936Z,56.30
2022-07-29T16:26:00.086Z,56.10
2022-07-29T16:28:53.231Z,55.70
2022-07-29T16:31:45.553Z,56.50
2022-07-29T16:34:37.862Z,57.00
2022-07-29T16:37:37.190Z,56.60
2022-07-29T16:40:29.414Z,56.80
2022-07-29T16:43:21.588Z,57.00
2022-07-29T16:46:18.556Z,57.30
2022-07-29T16:49:11.656Z,57.80
2022-07-29T16:52:07.834Z,56.90
2022-07-29T16:55:00.535Z,57.50
2022-07-29T16:57:52.866Z,57.40
2022-07-29T17:00:45.055Z,57.80
2022-07-29T17:04:00.115Z,58.00
2022-07-29T17:06:53.016Z,58.40
2022-07-29T17:09:45.398Z,58.30
2022-07-29T17:12:38.898Z,58.60
2022-07-29T17:15:31.397Z,59.00
2022-07-29T17:18:28.611Z,59.20
2022-07-29T17:21:21.322Z,59.10
2022-07-29T17:24:13.538Z,59.50
2022-07-29T17:27:06.266Z,59.40
2022-07-29T17:29:58.555Z,59.70
2022-07-29T17:32:50.772Z,59.90
2022-07-29T17:36:01.292Z,60.30
2022-07-29T17:38:54.892Z,61.20
2022-07-29T17:41:47.329Z,61.30
2022-07-29T17:44:40.287Z,61.50
2022-07-29T17:47:32.510Z,61.50
2022-07-29T17:50:24.800Z,61.70
2022-07-29T17:53:17.585Z,62.30
2022-07-29T17:56:09.848Z,62.50
2022-07-29T17:59:06.530Z,63.30
2022-07-29T18:01:58.858Z,64.10
2022-07-29T18:04:51.094Z,64.60
2022-07-29T18:07:43.382Z,65.80
2022-07-29T18:10:36.149Z,66.60
2022-07-29T18:13:28.421Z,66.90
2022-07-29T18:16:20.699Z,67.30
2022-07-29T18:19:13.106Z,68.00
2022-07-29T18:22:05.674Z,68.40
2022-07-29T18:24:58.360Z,68.80
2022-07-29T18:27:50.835Z,69.10
2022-07-29T18:30:43.122Z,69.00
2022-07-29T18:33:35.285Z,69.30
2022-07-29T18:36:28.415Z,69.60
2022-07-29T18:39:21.461Z,70.00
2022-07-29T18:42:13.746Z,70.10
2022-07-29T18:45:11.906Z,70.80
2022-07-29T18:48:13.098Z,71.20
2022-07-29T18:51:09.316Z,71.80
2022-07-29T18:54:01.892Z,71.90
2022-07-29T18:56:54.112Z,72.50
2022-07-29T18:59:46.279Z,72.80
2022-07-29T19:02:38.858Z,73.20
2022-07-29T19:05:31.496Z,73.20
2022-07-29T19:08:23.774Z,73.20
2022-07-29T19:11:17.334Z,73.80
2022-07-29T19:14:09.582Z,73.80
2022-07-29T19:17:01.906Z,74.20
2022-07-29T19:19:54.384Z,75.30
2022-07-29T19:22:46.706Z,75.70
2022-07-29T19:25:53.129Z,75.40
2022-07-29T19:28:49.340Z,75.80
2022-07-29T19:31:44.605Z,77.00
2022-07-29T19:34:37.483Z,77.10
2022-07-29T19:37:29.672Z,78.00
2022-07-29T19:40:24.557Z,78.00
2022-07-29T19:43:49.460Z,78.90
2022-07-29T19:46:29.235Z,78.30
2022-07-29T19:49:21.500Z,78.80
2022-07-29T19:52:13.704Z,78.70
2022-07-29T19:55:07.888Z,80.90
2022-07-29T19:58:00.338Z,81.40
2022-07-29T20:00:52.562Z,82.60
2022-07-29T20:03:45.086Z,82.50
2022-07-29T20:06:37.314Z,81.80
2022-07-29T20:09:29.567Z,82.20
2022-07-29T20:12:24.418Z,82.60
2022-07-29T20:15:16.801Z,83.10
2022-07-29T20:18:09.398Z,83.30
2022-07-29T20:21:01.628Z,83.50
2022-07-29T20:24:00.362Z,83.60
2022-07-29T20:26:52.571Z,83.80
2022-07-29T20:29:44.779Z,85.30
2022-07-29T20:32:37.125Z,85.50
2022-07-29T20:35:29.462Z,86.50
2022-07-29T20:38:21.713Z,87.50
2022-07-29T20:41:14.550Z,87.20
2022-07-29T20:44:07.002Z,87.30
2022-07-29T20:46:59.318Z,88.40
2022-07-29T20:49:52.332Z,88.40
2022-07-29T20:52:44.542Z,89.10
2022-07-29T20:55:36.927Z,89.90
2022-07-29T20:58:29.175Z,90.30
2022-07-29T21:01:21.404Z,90.50
2022-07-29T21:04:13.595Z,90.40
2022-07-29T21:07:06.210Z,90.80
2022-07-29T21:09:58.386Z,91.00
2022-07-29T21:12:50.557Z,91.20
2022-07-29T21:15:46.222Z,91.30
2022-07-29T21:18:40.616Z,91.50
2022-07-29T21:21:32.970Z,91.70
2022-07-29T21:24:25.162Z,91.60
2022-07-29T21:27:38.291Z,92.00
2022-07-29T21:30:30.742Z,92.40
2022-07-29T21:33:23.241Z,92.80
2022-07-29T21:36:46.772Z,93.10
2022-07-29T21:39:29.147Z,93.40
2022-07-29T21:42:21.619Z,93.80
2022-07-29T21:45:13.898Z,94.00
2022-07-29T21:48:06.720Z,94.30
2022-07-29T21:50:58.986Z,94.60
2022-07-29T21:53:53.065Z,94.90
2022-07-29T21:56:45.522Z,95.20
2022-07-29T21:59:43.556Z,95.60
2022-07-29T22:02:35.746Z,95.70
2022-07-29T22:05:29.275Z,95.70
2022-07-29T22:08:21.473Z,95.80
2022-07-29T22:11:13.730Z,96.00
2022-07-29T22:14:07.334Z,96.30
2022-07-29T22:16:59.807Z,96.70
2022-07-29T22:19:52.914Z,97.10
2022-07-29T22:22:45.202Z,97.40
2022-07-29T22:25:37.388Z,97.90
2022-07-29T22:28:29.746Z,98.40
2022-07-29T22:31:22.058Z,98.90
2022-07-29T22:34:14.548Z,99.20
2022-07-29T22:37:07.528Z,99.80
2022-07-29T22:39:59.704Z,99.90
2022-07-29T22:42:51.889Z,99.90
2022-07-29T22:45:44.121Z,99.90
2022-07-29T22:48:37.144Z,99.90
2022-07-29T22:51:29.415Z,99.90
2022-07-29T22:54:21.601Z,99.90
2022-07-29T22:57:13.781Z,99.90
2022-07-29T23:00:06.933Z,99.90
2022-07-29T23:02:59.495Z,99.90
2022-07-29T23:05:51.998Z,99.90
2022-07-29T23:08:44.201Z,99.90
2022-07-29T23:11:36.387Z,99.90
2022-07-29T23:14:28.581Z,99.90
2022-07-29T23:17:20.822Z,99.90
2022-07-29T23:20:14.690Z,99.90
2022-07-29T23:23:07.239Z,99.90
2022-07-29T23:25:59.493Z,99.90
2022-07-29T23:28:51.698Z,99.90
2022-07-29T23:31:48.072Z,99.90
2022-07-29T23:34:40.748Z,99.90
2022-07-29T23:37:33.661Z,99.90
2022-07-29T23:40:26.178Z,99.90
2022-07-29T23:43:18.542Z,99.90
2022-07-29T23:46:10.931Z,99.90
2022-07-29T23:49:04.255Z,99.90
2022-07-29T23:51:57.944Z,99.90
2022-07-29T23:54:50.160Z,99.90
2022-07-29T23:57:42.384Z,99.90
